createdAt,value
2016-05-15T00:00:29.280Z,1016.58
2016-05-15T00:01:29.315Z,1016.56
2016-05-15T00:02:29.332Z,1016.58
2016-05-15T00:03:29.461Z,1016.54
2016-05-15T00:04:29.386Z,1016.56
2016-05-15T00:05:29.404Z,1016.51
2016-05-15T00:06:29.422Z,1016.57
2016-05-15T00:07:29.456Z,1016.57
2016-05-15T00:08:29.473Z,1016.56
2016-05-15T00:09:29.492Z,1016.57
2016-05-15T00:10:29.527Z,1016.58
2016-05-15T00:11:29.560Z,1016.57
2016-05-15T00:12:29.563Z,1016.59
2016-05-15T00:13:29.597Z,1016.6
2016-05-15T00:14:29.615Z,1016.61
2016-05-15T00:15:29.634Z,1016.68
2016-05-15T00:16:29.651Z,1016.64
2016-05-15T00:17:29.686Z,1016.66
2016-05-15T00:18:29.704Z,1016.65
2016-05-15T00:19:29.722Z,1016.69
2016-05-15T00:20:29.756Z,1016.7
2016-05-15T00:21:29.775Z,1016.74
2016-05-15T00:22:29.792Z,1016.7
2016-05-15T00:23:29.828Z,1016.69
2016-05-15T00:24:29.845Z,1016.7
2016-05-15T00:25:29.864Z,1016.67
2016-05-15T00:26:29.882Z,1016.69
2016-05-15T00:27:29.916Z,1016.67
2016-05-15T00:28:29.933Z,1016.67
2016-05-15T00:29:29.952Z,1016.66
2016-05-15T00:30:29.986Z,1016.62
2016-05-15T00:31:30.005Z,1016.63
2016-05-15T00:32:30.024Z,1016.66
2016-05-15T00:33:30.057Z,1016.6
2016-05-15T00:34:30.075Z,1016.62
2016-05-15T00:35:30.093Z,1016.62
2016-05-15T00:36:30.112Z,1016.58
2016-05-15T00:37:30.146Z,1016.63
2016-05-15T00:38:30.179Z,1016.59
2016-05-15T00:39:30.182Z,1016.63
2016-05-15T00:40:30.216Z,1016.61
2016-05-15T00:41:30.234Z,1016.59
2016-05-15T00:42:30.253Z,1016.58
2016-05-15T00:43:30.287Z,1016.58
2016-05-15T00:44:30.306Z,1016.57
2016-05-15T00:45:30.323Z,1016.6
2016-05-15T00:46:30.357Z,1016.6
2016-05-15T00:47:30.376Z,1016.58
2016-05-15T00:48:30.566Z,1016.6
2016-05-15T00:49:30.413Z,1016.52
2016-05-15T00:50:30.447Z,1016.6
2016-05-15T00:51:30.465Z,1016.55
2016-05-15T00:52:30.483Z,1016.55
2016-05-15T00:53:30.517Z,1016.55
2016-05-15T00:54:30.535Z,1016.56
2016-05-15T00:55:30.553Z,1016.55
2016-05-15T00:56:30.588Z,1016.53
2016-05-15T00:57:30.606Z,1016.54
2016-05-15T00:58:30.624Z,1016.53
2016-05-15T00:59:30.642Z,1016.55
2016-05-15T01:00:30.677Z,1016.54
2016-05-15T01:01:30.694Z,1016.51
2016-05-15T01:02:30.713Z,1016.51
2016-05-15T01:03:40.982Z,1016.53
2016-05-15T01:04:30.766Z,1016.52
2016-05-15T01:05:30.783Z,1016.52
2016-05-15T01:06:30.818Z,1016.52
2016-05-15T01:07:30.836Z,1016.49
2016-05-15T01:08:30.854Z,1016.56
2016-05-15T01:09:30.873Z,1016.55
2016-05-15T01:10:30.907Z,1016.56
2016-05-15T01:11:30.925Z,1016.56
2016-05-15T01:12:30.959Z,1016.54
2016-05-15T01:13:30.977Z,1016.53
2016-05-15T01:14:30.995Z,1016.58
2016-05-15T01:15:31.014Z,1016.53
2016-05-15T01:16:31.048Z,1016.54
2016-05-15T01:17:31.065Z,1016.6
2016-05-15T01:18:31.084Z,1016.55
2016-05-15T01:19:31.118Z,1016.6
2016-05-15T01:20:31.136Z,1016.58
2016-05-15T01:21:31.156Z,1016.59
2016-05-15T01:22:31.173Z,1016.62
2016-05-15T01:23:31.207Z,1016.6
2016-05-15T01:24:31.225Z,1016.64
2016-05-15T01:25:31.244Z,1016.63
2016-05-15T01:26:31.278Z,1016.64
2016-05-15T01:27:31.296Z,1016.63
2016-05-15T01:28:31.314Z,1016.62
2016-05-15T01:29:31.333Z,1016.68
2016-05-15T01:30:31.366Z,1016.64
2016-05-15T01:31:31.385Z,1016.69
2016-05-15T01:32:31.403Z,1016.68
2016-05-15T01:33:31.438Z,1016.7
2016-05-15T01:34:31.455Z,1016.65
2016-05-15T01:35:31.474Z,1016.69
2016-05-15T01:36:31.508Z,1016.7
2016-05-15T01:37:31.526Z,1016.69
2016-05-15T01:38:31.544Z,1016.72
2016-05-15T01:39:31.563Z,1016.69
2016-05-15T01:40:31.596Z,1016.66
2016-05-15T01:41:31.615Z,1016.69
2016-05-15T01:42:31.632Z,1016.7
2016-05-15T01:43:31.667Z,1016.68
2016-05-15T01:44:31.685Z,1016.7
2016-05-15T01:45:31.703Z,1016.74
2016-05-15T01:46:31.737Z,1016.7
2016-05-15T01:47:31.756Z,1016.69
2016-05-15T01:48:31.790Z,1016.69
2016-05-15T01:49:31.793Z,1016.68
2016-05-15T01:50:31.826Z,1016.7
2016-05-15T01:51:31.845Z,1016.68
2016-05-15T01:52:31.863Z,1016.66
2016-05-15T01:53:31.898Z,1016.65
2016-05-15T01:54:31.915Z,1016.66
2016-05-15T01:55:31.934Z,1016.67
2016-05-15T01:56:31.967Z,1016.66
2016-05-15T01:57:31.986Z,1016.68
2016-05-15T01:58:32.005Z,1016.7
2016-05-15T01:59:32.038Z,1016.69
2016-05-15T02:00:32.056Z,1016.63
2016-05-15T02:01:32.075Z,1016.7
2016-05-15T02:02:32.094Z,1016.66
2016-05-15T02:03:32.127Z,1016.65
2016-05-15T02:04:32.146Z,1016.66
2016-05-15T02:05:32.163Z,1016.66
2016-05-15T02:06:32.197Z,1016.63
2016-05-15T02:07:32.216Z,1016.62
2016-05-15T02:08:32.234Z,1016.63
2016-05-15T02:09:32.269Z,1016.64
2016-05-15T02:10:32.287Z,1016.61
2016-05-15T02:11:32.305Z,1016.64
2016-05-15T02:12:32.323Z,1016.64
2016-05-15T02:13:32.358Z,1016.63
2016-05-15T02:14:32.376Z,1016.66
2016-05-15T02:15:32.393Z,1016.63
2016-05-15T02:16:32.413Z,1016.65
2016-05-15T02:17:32.446Z,1016.64
2016-05-15T02:18:32.839Z,1016.66
2016-05-15T02:19:32.483Z,1016.69
2016-05-15T02:20:32.517Z,1016.69
2016-05-15T02:21:32.535Z,1016.72
2016-05-15T02:22:32.553Z,1016.69
2016-05-15T02:23:32.587Z,1016.74
2016-05-15T02:24:32.606Z,1016.75
2016-05-15T02:25:32.623Z,1016.77
2016-05-15T02:26:32.642Z,1016.71
2016-05-15T02:27:32.676Z,1016.72
2016-05-15T02:28:32.695Z,1016.73
2016-05-15T02:29:32.728Z,1016.73
2016-05-15T02:30:32.747Z,1016.72
2016-05-15T02:31:32.764Z,1016.73
2016-05-15T02:32:32.800Z,1016.75
2016-05-15T02:33:32.817Z,1016.8
2016-05-15T02:34:32.835Z,1016.74
2016-05-15T02:35:32.854Z,1016.73
2016-05-15T02:36:32.872Z,1016.74
2016-05-15T02:37:32.906Z,1016.73
2016-05-15T02:38:32.924Z,1016.69
2016-05-15T02:39:32.943Z,1016.69
2016-05-15T02:40:32.977Z,1016.74
2016-05-15T02:41:32.995Z,1016.7
2016-05-15T02:42:33.013Z,1016.77
2016-05-15T02:43:33.047Z,1016.76
2016-05-15T02:44:33.066Z,1016.74
2016-05-15T02:45:33.084Z,1016.73
2016-05-15T02:46:33.118Z,1016.81
2016-05-15T02:47:33.136Z,1016.8
2016-05-15T02:48:33.154Z,1016.78
2016-05-15T02:49:33.173Z,1016.78
2016-05-15T02:50:33.190Z,1016.8
2016-05-15T02:51:33.226Z,1016.83
2016-05-15T02:52:33.243Z,1016.79
2016-05-15T02:53:33.261Z,1016.81
2016-05-15T02:54:33.295Z,1016.85
2016-05-15T02:55:33.314Z,1016.82
2016-05-15T02:56:33.332Z,1016.83
2016-05-15T02:57:33.366Z,1016.81
2016-05-15T02:58:33.385Z,1016.85
2016-05-15T02:59:33.403Z,1016.83
2016-05-15T03:00:33.436Z,1016.82
2016-05-15T03:01:33.455Z,1016.83
2016-05-15T03:02:33.489Z,1016.82
2016-05-15T03:03:33.491Z,1016.88
2016-05-15T03:04:33.525Z,1016.9
2016-05-15T03:05:33.544Z,1016.9
2016-05-15T03:06:33.563Z,1016.86
2016-05-15T03:07:33.596Z,1016.83
2016-05-15T03:08:33.614Z,1016.85
2016-05-15T03:09:33.633Z,1016.8
2016-05-15T03:10:33.651Z,1016.82
2016-05-15T03:11:33.685Z,1016.86
2016-05-15T03:12:33.704Z,1016.85
2016-05-15T03:13:33.722Z,1016.88
2016-05-15T03:14:33.755Z,1016.86
2016-05-15T03:15:33.790Z,1016.85
2016-05-15T03:16:33.793Z,1016.9
2016-05-15T03:17:33.826Z,1016.85
2016-05-15T03:18:34.016Z,1016.83
2016-05-15T03:19:33.862Z,1016.81
2016-05-15T03:20:33.882Z,1016.83
2016-05-15T03:21:33.915Z,1016.78
2016-05-15T03:22:33.933Z,1016.82
2016-05-15T03:23:33.952Z,1016.83
2016-05-15T03:24:33.986Z,1016.86
2016-05-15T03:25:34.003Z,1016.8
2016-05-15T03:26:34.023Z,1016.84
2016-05-15T03:27:34.056Z,1016.83
2016-05-15T03:28:34.075Z,1016.83
2016-05-15T03:29:34.108Z,1016.83
2016-05-15T03:30:34.111Z,1016.87
2016-05-15T03:31:34.145Z,1016.85
2016-05-15T03:32:34.163Z,1016.87
2016-05-15T03:33:34.181Z,1016.82
2016-05-15T03:34:34.294Z,1016.87
2016-05-15T03:35:34.234Z,1016.87
2016-05-15T03:36:34.252Z,1016.87
2016-05-15T03:37:34.271Z,1016.83
2016-05-15T03:38:34.305Z,1016.83
2016-05-15T03:39:34.322Z,1016.91
2016-05-15T03:40:34.341Z,1016.83
2016-05-15T03:41:34.375Z,1016.88
2016-05-15T03:42:34.394Z,1016.92
2016-05-15T03:43:34.412Z,1016.84
2016-05-15T03:44:34.445Z,1016.89
2016-05-15T03:45:34.464Z,1016.9
2016-05-15T03:46:34.482Z,1016.85
2016-05-15T03:47:34.515Z,1016.87
2016-05-15T03:48:34.535Z,1016.89
2016-05-15T03:49:34.554Z,1016.88
2016-05-15T03:50:34.571Z,1016.88
2016-05-15T03:51:34.604Z,1016.87
2016-05-15T03:52:34.624Z,1016.89
2016-05-15T03:53:34.642Z,1016.91
2016-05-15T03:54:34.675Z,1016.89
2016-05-15T03:55:34.695Z,1016.89
2016-05-15T03:56:34.712Z,1016.93
2016-05-15T03:57:34.731Z,1016.95
2016-05-15T03:58:34.764Z,1016.98
2016-05-15T03:59:34.783Z,1016.99
2016-05-15T04:00:34.801Z,1017.04
2016-05-15T04:01:34.835Z,1017.02
2016-05-15T04:02:34.853Z,1017.01
2016-05-15T04:03:34.872Z,1017.04
2016-05-15T04:04:34.906Z,1017.03
2016-05-15T04:05:34.924Z,1017.06
2016-05-15T04:06:34.942Z,1017.04
2016-05-15T04:07:34.961Z,1017.03
2016-05-15T04:08:34.994Z,1017.07
2016-05-15T04:09:35.013Z,1017.06
2016-05-15T04:10:35.031Z,1017.05
2016-05-15T04:11:35.066Z,1017.08
2016-05-15T04:12:35.083Z,1017.08
2016-05-15T04:13:35.101Z,1017.02
2016-05-15T04:14:35.121Z,1017.04
2016-05-15T04:15:35.154Z,1017.02
2016-05-15T04:16:35.171Z,1017.01
2016-05-15T04:17:35.191Z,1017.07
2016-05-15T04:18:35.552Z,1017.1
2016-05-15T04:19:35.243Z,1017.1
2016-05-15T04:20:35.262Z,1017.08
2016-05-15T04:21:35.296Z,1017.08
2016-05-15T04:22:35.313Z,1017.09
2016-05-15T04:23:35.331Z,1017.05
2016-05-15T04:24:35.351Z,1017.07
2016-05-15T04:25:35.384Z,1017.06
2016-05-15T04:26:35.403Z,1017.09
2016-05-15T04:27:35.420Z,1017.04
2016-05-15T04:28:35.454Z,1017.11
2016-05-15T04:29:35.473Z,1017.12
2016-05-15T04:30:35.491Z,1017.06
2016-05-15T04:31:35.509Z,1017.08
2016-05-15T04:32:35.544Z,1017.07
2016-05-15T04:33:35.843Z,1017.1
2016-05-15T04:34:35.595Z,1017.08
2016-05-15T04:35:35.614Z,1017.14
2016-05-15T04:36:35.633Z,1017.15
2016-05-15T04:37:35.650Z,1017.13
2016-05-15T04:38:35.669Z,1017.12
2016-05-15T04:39:35.703Z,1017.1
2016-05-15T04:40:35.721Z,1017.12
2016-05-15T04:41:35.739Z,1017.12
2016-05-15T04:42:35.774Z,1017.16
2016-05-15T04:43:35.791Z,1017.15
2016-05-15T04:44:35.810Z,1017.12
2016-05-15T04:45:35.828Z,1017.18
2016-05-15T04:46:35.863Z,1017.13
2016-05-15T04:47:35.880Z,1017.08
2016-05-15T04:48:35.899Z,1017.11
2016-05-15T04:49:35.980Z,1017.11
2016-05-15T04:50:35.951Z,1017.11
2016-05-15T04:51:35.970Z,1017.13
2016-05-15T04:52:36.004Z,1017.17
2016-05-15T04:53:36.021Z,1017.15
2016-05-15T04:54:36.040Z,1017.13
2016-05-15T04:55:36.074Z,1017.11
2016-05-15T04:56:36.093Z,1017.13
2016-05-15T04:57:36.111Z,1017.11
2016-05-15T04:58:36.129Z,1017.1
2016-05-15T04:59:36.162Z,1017.11
2016-05-15T05:00:36.181Z,1017.11
2016-05-15T05:01:36.200Z,1017.15
2016-05-15T05:02:36.233Z,1017.13
2016-05-15T05:03:36.253Z,1017.14
2016-05-15T05:04:36.270Z,1017.13
2016-05-15T05:05:36.303Z,1017.11
2016-05-15T05:06:36.323Z,1017.14
2016-05-15T05:07:36.341Z,1017.12
2016-05-15T05:08:36.358Z,1017.13
2016-05-15T05:09:36.394Z,1017.1
2016-05-15T05:10:36.411Z,1017.11
2016-05-15T05:11:36.430Z,1017.07
2016-05-15T05:12:36.463Z,1017.12
2016-05-15T05:13:36.482Z,1017.13
2016-05-15T05:14:36.500Z,1017.11
2016-05-15T05:15:36.518Z,1017.14
2016-05-15T05:16:36.552Z,1017.13
2016-05-15T05:17:36.571Z,1017.1
2016-05-15T05:18:36.589Z,1017.07
2016-05-15T05:19:37.091Z,1017.17
2016-05-15T05:20:36.641Z,1017.17
2016-05-15T05:21:36.660Z,1017.15
2016-05-15T05:22:36.693Z,1017.18
2016-05-15T05:23:36.712Z,1017.26
2016-05-15T05:24:36.729Z,1017.24
2016-05-15T05:25:36.765Z,1017.26
2016-05-15T05:26:36.782Z,1017.25
2016-05-15T05:27:36.800Z,1017.29
2016-05-15T05:28:36.820Z,1017.3
2016-05-15T05:29:36.853Z,1017.29
2016-05-15T05:30:36.870Z,1017.25
2016-05-15T05:31:36.889Z,1017.25
2016-05-15T05:32:36.924Z,1017.26
2016-05-15T05:33:36.942Z,1017.27
2016-05-15T05:34:36.960Z,1017.27
2016-05-15T05:35:36.995Z,1017.32
2016-05-15T05:36:37.012Z,1017.3
2016-05-15T05:37:37.030Z,1017.35
2016-05-15T05:38:37.049Z,1017.36
2016-05-15T05:39:37.083Z,1017.32
2016-05-15T05:40:37.102Z,1017.38
2016-05-15T05:41:37.119Z,1017.35
2016-05-15T05:42:37.153Z,1017.4
2016-05-15T05:43:37.172Z,1017.42
2016-05-15T05:44:37.190Z,1017.47
2016-05-15T05:45:37.224Z,1017.5
2016-05-15T05:46:37.243Z,1017.42
2016-05-15T05:47:37.261Z,1017.43
2016-05-15T05:48:37.294Z,1017.45
2016-05-15T05:49:37.313Z,1017.44
2016-05-15T05:50:37.332Z,1017.45
2016-05-15T05:51:37.365Z,1017.48
2016-05-15T05:52:37.384Z,1017.49
2016-05-15T05:53:37.402Z,1017.46
2016-05-15T05:54:37.435Z,1017.51
2016-05-15T05:55:37.454Z,1017.51
2016-05-15T05:56:37.488Z,1017.51
2016-05-15T05:57:37.506Z,1017.55
2016-05-15T05:58:37.525Z,1017.58
2016-05-15T05:59:37.542Z,1017.57
2016-05-15T06:00:37.562Z,1017.55
2016-05-15T06:01:37.595Z,1017.61
2016-05-15T06:02:37.629Z,1017.63
2016-05-15T06:03:37.632Z,1017.59
2016-05-15T06:04:37.666Z,1017.61
2016-05-15T06:05:37.684Z,1017.61
2016-05-15T06:06:37.703Z,1017.62
2016-05-15T06:07:37.736Z,1017.62
2016-05-15T06:08:37.755Z,1017.58
2016-05-15T06:09:37.772Z,1017.59
2016-05-15T06:10:37.808Z,1017.53
2016-05-15T06:11:37.825Z,1017.56
2016-05-15T06:12:37.844Z,1017.56
2016-05-15T06:13:37.877Z,1017.57
2016-05-15T06:14:37.896Z,1017.52
2016-05-15T06:15:37.930Z,1017.59
2016-05-15T06:16:37.948Z,1017.59
2016-05-15T06:17:37.967Z,1017.59
2016-05-15T06:18:38.000Z,1017.58
2016-05-15T06:19:38.268Z,1017.6
2016-05-15T06:20:38.038Z,1017.59
2016-05-15T06:21:38.071Z,1017.57
2016-05-15T06:22:38.089Z,1017.6
2016-05-15T06:23:38.123Z,1017.6
2016-05-15T06:24:38.141Z,1017.61
2016-05-15T06:25:38.160Z,1017.59
2016-05-15T06:26:38.193Z,1017.6
2016-05-15T06:27:38.212Z,1017.61
2016-05-15T06:28:38.231Z,1017.66
2016-05-15T06:29:38.264Z,1017.62
2016-05-15T06:30:38.282Z,1017.67
2016-05-15T06:31:38.317Z,1017.68
2016-05-15T06:32:38.335Z,1017.65
2016-05-15T06:33:38.369Z,1017.64
2016-05-15T06:34:38.450Z,1017.62
2016-05-15T06:35:38.406Z,1017.64
2016-05-15T06:36:38.439Z,1017.66
2016-05-15T06:37:38.458Z,1017.66
2016-05-15T06:38:38.475Z,1017.65
2016-05-15T06:39:38.511Z,1017.65
2016-05-15T06:40:38.544Z,1017.65
2016-05-15T06:41:38.561Z,1017.64
2016-05-15T06:42:38.581Z,1017.64
2016-05-15T06:43:38.614Z,1017.7
2016-05-15T06:44:38.633Z,1017.67
2016-05-15T06:45:38.666Z,1017.7
2016-05-15T06:46:38.686Z,1017.66
2016-05-15T06:47:38.719Z,1017.63
2016-05-15T06:48:38.737Z,1017.7
2016-05-15T06:49:38.975Z,1017.71
2016-05-15T06:50:38.790Z,1017.72
2016-05-15T06:51:38.807Z,1017.71
2016-05-15T06:52:38.826Z,1017.72
2016-05-15T06:53:38.860Z,1017.76
2016-05-15T06:54:38.879Z,1017.76
2016-05-15T06:55:38.912Z,1017.75
2016-05-15T06:56:38.931Z,1017.77
2016-05-15T06:57:38.965Z,1017.78
2016-05-15T06:58:38.982Z,1017.75
2016-05-15T06:59:39.001Z,1017.79
2016-05-15T07:00:39.035Z,1017.8
2016-05-15T07:01:39.054Z,1017.81
2016-05-15T07:02:39.087Z,1017.8
2016-05-15T07:03:39.106Z,1017.82
2016-05-15T07:04:39.140Z,1017.87
2016-05-15T07:05:39.158Z,1017.85
2016-05-15T07:06:39.191Z,1017.83
2016-05-15T07:07:39.211Z,1017.84
2016-05-15T07:08:39.228Z,1017.92
2016-05-15T07:09:39.262Z,1017.86
2016-05-15T07:10:39.280Z,1017.92
2016-05-15T07:11:39.315Z,1017.93
2016-05-15T07:12:39.333Z,1017.92
2016-05-15T07:13:39.366Z,1017.92
2016-05-15T07:14:39.386Z,1017.95
2016-05-15T07:15:39.403Z,1017.94
2016-05-15T07:16:39.438Z,1017.9
2016-05-15T07:17:39.456Z,1017.93
2016-05-15T07:18:39.490Z,1017.92
2016-05-15T07:19:39.508Z,1017.92
2016-05-15T07:20:39.541Z,1017.89
2016-05-15T07:21:39.560Z,1017.93
2016-05-15T07:22:39.594Z,1017.9
2016-05-15T07:23:39.613Z,1017.93
2016-05-15T07:24:39.646Z,1017.91
2016-05-15T07:25:39.665Z,1017.96
2016-05-15T07:26:39.699Z,1017.94
2016-05-15T07:27:39.717Z,1017.94
2016-05-15T07:28:39.751Z,1017.96
2016-05-15T07:29:39.770Z,1017.96
2016-05-15T07:30:39.804Z,1017.98
2016-05-15T07:31:39.821Z,1017.95
2016-05-15T07:32:39.840Z,1017.92
2016-05-15T07:33:39.921Z,1017.96
2016-05-15T07:34:39.908Z,1018.01
2016-05-15T07:35:39.925Z,1017.97
2016-05-15T07:36:39.960Z,1017.99
2016-05-15T07:37:39.978Z,1017.93
2016-05-15T07:38:40.017Z,1017.91
2016-05-15T07:39:40.094Z,1017.94
2016-05-15T07:40:40.157Z,1017.92
2016-05-15T07:41:40.233Z,1017.97
2016-05-15T07:42:40.294Z,1017.94
2016-05-15T07:43:40.360Z,1018
2016-05-15T07:44:40.393Z,1017.94
2016-05-15T07:45:40.444Z,1017.99
2016-05-15T07:46:40.477Z,1017.96
2016-05-15T07:47:40.526Z,1017.98
2016-05-15T07:48:40.556Z,1018.04
2016-05-15T07:49:41.205Z,1018
2016-05-15T07:50:40.635Z,1018.02
2016-05-15T07:51:40.924Z,1017.98
2016-05-15T07:52:40.698Z,1017.98
2016-05-15T07:53:40.720Z,1017.95
2016-05-15T07:54:40.755Z,1017.95
2016-05-15T07:55:40.776Z,1017.93
2016-05-15T07:56:40.811Z,1017.99
2016-05-15T07:57:40.832Z,1017.95
2016-05-15T07:58:40.867Z,1017.97
2016-05-15T07:59:40.887Z,1017.94
2016-05-15T08:00:40.921Z,1017.98
2016-05-15T08:01:40.940Z,1017.99
2016-05-15T08:02:40.975Z,1018
2016-05-15T08:03:40.993Z,1017.99
2016-05-15T08:04:41.028Z,1017.95
2016-05-15T08:05:41.046Z,1017.98
2016-05-15T08:06:41.082Z,1017.98
2016-05-15T08:07:41.100Z,1018
2016-05-15T08:08:41.133Z,1017.94
2016-05-15T08:09:41.153Z,1017.95
2016-05-15T08:10:41.202Z,1017.96
2016-05-15T08:11:41.204Z,1017.97
2016-05-15T08:12:41.238Z,1017.91
2016-05-15T08:13:41.257Z,1017.96
2016-05-15T08:14:41.291Z,1017.97
2016-05-15T08:15:41.309Z,1017.98
2016-05-15T08:16:41.343Z,1018.01
2016-05-15T08:17:41.377Z,1018.03
2016-05-15T08:18:41.395Z,1018.04
2016-05-15T08:19:41.413Z,1018.04
2016-05-15T08:20:41.432Z,1018.04
2016-05-15T08:21:41.466Z,1018.04
2016-05-15T08:22:41.515Z,1018.06
2016-05-15T08:23:41.518Z,1018.03
2016-05-15T08:24:41.537Z,1018.04
2016-05-15T08:25:41.570Z,1018.06
2016-05-15T08:26:41.589Z,1018.01
2016-05-15T08:27:41.622Z,1018.06
2016-05-15T08:28:41.642Z,1018.09
2016-05-15T08:29:41.675Z,1018.09
2016-05-15T08:30:41.692Z,1018.08
2016-05-15T08:31:41.711Z,1018.1
2016-05-15T08:32:41.745Z,1018.08
2016-05-15T08:33:41.764Z,1018.04
2016-05-15T08:34:42.516Z,1018.08
2016-05-15T08:35:41.817Z,1018.05
2016-05-15T08:36:41.850Z,1018.1
2016-05-15T08:37:41.868Z,1018.11
2016-05-15T08:38:41.903Z,1018.12
2016-05-15T08:39:41.921Z,1018.09
2016-05-15T08:40:41.954Z,1018.11
2016-05-15T08:41:41.972Z,1018.09
2016-05-15T08:42:41.991Z,1018.14
2016-05-15T08:43:42.025Z,1018.1
2016-05-15T08:44:42.043Z,1018.14
2016-05-15T08:45:42.077Z,1018.13
2016-05-15T08:46:42.096Z,1018.14
2016-05-15T08:47:42.129Z,1018.11
2016-05-15T08:48:42.148Z,1018.09
2016-05-15T08:49:42.182Z,1018.06
2016-05-15T08:50:42.201Z,1018.1
2016-05-15T08:51:42.218Z,1018.11
2016-05-15T08:52:42.252Z,1018.1
2016-05-15T08:53:42.270Z,1018.09
2016-05-15T08:54:42.289Z,1018.12
2016-05-15T08:55:42.323Z,1018.13
2016-05-15T08:56:42.342Z,1018.04
2016-05-15T08:57:42.375Z,1018.05
2016-05-15T08:58:42.393Z,1018.04
2016-05-15T08:59:42.412Z,1018.07
2016-05-15T09:00:42.461Z,1018.07
2016-05-15T09:01:42.464Z,1018.07
2016-05-15T09:02:42.498Z,1018.06
2016-05-15T09:03:42.516Z,1018.07
2016-05-15T09:04:42.551Z,1018.03
2016-05-15T09:05:42.569Z,1018.1
2016-05-15T09:06:42.602Z,1018.1
2016-05-15T09:07:42.621Z,1018.14
2016-05-15T09:08:42.638Z,1018.24
2016-05-15T09:09:42.672Z,1018.22
2016-05-15T09:10:42.708Z,1018.28
2016-05-15T09:11:42.725Z,1018.26
2016-05-15T09:12:42.743Z,1018.32
2016-05-15T09:13:42.778Z,1018.33
2016-05-15T09:14:42.796Z,1018.33
2016-05-15T09:15:42.813Z,1018.37
2016-05-15T09:16:42.848Z,1018.35
2016-05-15T09:17:42.867Z,1018.36
2016-05-15T09:18:42.901Z,1018.42
2016-05-15T09:19:43.184Z,1018.35
2016-05-15T09:20:42.952Z,1018.36
2016-05-15T09:21:42.970Z,1018.34
2016-05-15T09:22:42.990Z,1018.36
2016-05-15T09:23:43.023Z,1018.34
2016-05-15T09:24:43.042Z,1018.31
2016-05-15T09:25:43.076Z,1018.3
2016-05-15T09:26:43.093Z,1018.34
2016-05-15T09:27:43.112Z,1018.33
2016-05-15T09:28:43.146Z,1018.32
2016-05-15T09:29:43.164Z,1018.28
2016-05-15T09:30:43.198Z,1018.39
2016-05-15T09:31:43.217Z,1018.31
2016-05-15T09:32:43.234Z,1018.31
2016-05-15T09:33:43.269Z,1018.28
2016-05-15T09:34:43.287Z,1018.32
2016-05-15T09:35:43.321Z,1018.3
2016-05-15T09:36:43.339Z,1018.34
2016-05-15T09:37:43.373Z,1018.31
2016-05-15T09:38:43.392Z,1018.31
2016-05-15T09:39:43.410Z,1018.35
2016-05-15T09:40:43.444Z,1018.33
2016-05-15T09:41:43.463Z,1018.3
2016-05-15T09:42:43.496Z,1018.34
2016-05-15T09:43:43.514Z,1018.32
2016-05-15T09:44:43.532Z,1018.33
2016-05-15T09:45:43.567Z,1018.3
2016-05-15T09:46:43.585Z,1018.31
2016-05-15T09:47:43.619Z,1018.36
2016-05-15T09:48:43.637Z,1018.31
2016-05-15T09:49:43.671Z,1018.29
2016-05-15T09:50:43.690Z,1018.31
2016-05-15T09:51:43.708Z,1018.28
2016-05-15T09:52:43.742Z,1018.29
2016-05-15T09:53:43.760Z,1018.28
2016-05-15T09:54:43.793Z,1018.26
2016-05-15T09:55:43.812Z,1018.28
2016-05-15T09:56:43.831Z,1018.28
2016-05-15T09:57:43.864Z,1018.26
2016-05-15T09:58:43.884Z,1018.28
2016-05-15T09:59:43.917Z,1018.31
2016-05-15T10:00:43.935Z,1018.27
2016-05-15T10:01:43.969Z,1018.35
2016-05-15T10:02:43.987Z,1018.29
2016-05-15T10:03:44.006Z,1018.29
2016-05-15T10:04:44.039Z,1018.33
2016-05-15T10:05:44.058Z,1018.31
2016-05-15T10:06:44.092Z,1018.31
2016-05-15T10:07:44.111Z,1018.29
2016-05-15T10:08:44.128Z,1018.3
2016-05-15T10:09:44.162Z,1018.31
2016-05-15T10:10:44.180Z,1018.32
2016-05-15T10:11:44.215Z,1018.29
2016-05-15T10:12:44.233Z,1018.28
2016-05-15T10:13:44.266Z,1018.31
2016-05-15T10:14:44.286Z,1018.33
2016-05-15T10:15:44.304Z,1018.3
2016-05-15T10:16:44.338Z,1018.28
2016-05-15T10:17:44.355Z,1018.28
2016-05-15T10:18:44.391Z,1018.26
2016-05-15T10:19:44.408Z,1018.24
2016-05-15T10:20:44.443Z,1018.25
2016-05-15T10:21:44.460Z,1018.21
2016-05-15T10:22:44.478Z,1018.25
2016-05-15T10:23:44.513Z,1018.27
2016-05-15T10:24:44.531Z,1018.19
2016-05-15T10:25:44.565Z,1018.16
2016-05-15T10:26:44.583Z,1018.17
2016-05-15T10:27:44.601Z,1018.14
2016-05-15T10:28:44.635Z,1018.15
2016-05-15T10:29:44.654Z,1018.16
2016-05-15T10:30:44.687Z,1018.14
2016-05-15T10:31:44.706Z,1018.16
2016-05-15T10:32:44.740Z,1018.17
2016-05-15T10:33:44.759Z,1018.19
2016-05-15T10:34:45.308Z,1018.14
2016-05-15T10:35:44.810Z,1018.11
2016-05-15T10:36:44.829Z,1018.15
2016-05-15T10:37:44.864Z,1018.12
2016-05-15T10:38:44.881Z,1018.09
2016-05-15T10:39:44.899Z,1018.13
2016-05-15T10:40:44.934Z,1018.21
2016-05-15T10:41:44.952Z,1018.22
2016-05-15T10:42:44.986Z,1018.28
2016-05-15T10:43:45.004Z,1018.34
2016-05-15T10:44:45.022Z,1018.49
2016-05-15T10:45:45.056Z,1018.34
2016-05-15T10:46:45.091Z,1018.31
2016-05-15T10:47:45.108Z,1018.35
2016-05-15T10:48:45.127Z,1018.41
2016-05-15T10:49:45.145Z,1018.38
2016-05-15T10:50:45.180Z,1018.37
2016-05-15T10:51:45.197Z,1018.37
2016-05-15T10:52:45.231Z,1018.41
2016-05-15T10:53:45.249Z,1018.38
2016-05-15T10:54:45.267Z,1018.38
2016-05-15T10:55:45.302Z,1018.33
2016-05-15T10:56:45.320Z,1018.32
2016-05-15T10:57:45.354Z,1018.38
2016-05-15T10:58:45.372Z,1018.34
2016-05-15T10:59:45.407Z,1018.36
2016-05-15T11:00:45.425Z,1018.32
2016-05-15T11:01:45.443Z,1018.34
2016-05-15T11:02:45.476Z,1018.33
2016-05-15T11:03:45.496Z,1018.32
2016-05-15T11:04:45.528Z,1018.28
2016-05-15T11:05:45.548Z,1018.3
2016-05-15T11:06:45.566Z,1018.3
2016-05-15T11:07:45.600Z,1018.29
2016-05-15T11:08:45.617Z,1018.26
2016-05-15T11:09:45.653Z,1018.24
2016-05-15T11:10:45.670Z,1018.25
2016-05-15T11:11:45.689Z,1018.25
2016-05-15T11:12:45.722Z,1018.23
2016-05-15T11:13:45.741Z,1018.19
2016-05-15T11:14:45.774Z,1018.18
2016-05-15T11:15:45.794Z,1018.18
2016-05-15T11:16:45.811Z,1018.16
2016-05-15T11:17:45.846Z,1018.13
2016-05-15T11:18:45.863Z,1018.12
2016-05-15T11:19:45.897Z,1018.09
2016-05-15T11:20:45.932Z,1018.06
2016-05-15T11:21:45.949Z,1018.04
2016-05-15T11:22:45.968Z,1018.03
2016-05-15T11:23:45.987Z,1018.02
2016-05-15T11:24:46.020Z,1018.01
2016-05-15T11:25:46.038Z,1018.04
2016-05-15T11:26:46.073Z,1017.97
2016-05-15T11:27:46.090Z,1017.98
2016-05-15T11:28:46.109Z,1017.93
2016-05-15T11:29:46.143Z,1017.96
2016-05-15T11:30:46.162Z,1017.94
2016-05-15T11:31:46.179Z,1017.88
2016-05-15T11:32:46.214Z,1017.92
2016-05-15T11:33:46.232Z,1017.89
2016-05-15T11:34:46.267Z,1017.89
2016-05-15T11:35:46.284Z,1017.84
2016-05-15T11:36:46.318Z,1017.89
2016-05-15T11:37:46.336Z,1017.9
2016-05-15T11:38:46.355Z,1017.89
2016-05-15T11:39:46.389Z,1017.98
2016-05-15T11:40:46.408Z,1017.92
2016-05-15T11:41:46.425Z,1017.98
2016-05-15T11:42:46.553Z,1018
2016-05-15T11:43:46.477Z,1018
2016-05-15T11:44:46.512Z,1018
2016-05-15T11:45:46.530Z,1017.98
2016-05-15T11:46:46.564Z,1017.99
2016-05-15T11:47:46.582Z,1018
2016-05-15T11:48:46.600Z,1018
2016-05-15T11:49:46.634Z,1017.95
2016-05-15T11:50:46.653Z,1017.96
2016-05-15T11:51:46.687Z,1017.93
2016-05-15T11:52:46.705Z,1017.99
2016-05-15T11:53:46.723Z,1017.95
2016-05-15T11:54:46.851Z,1017.99
2016-05-15T11:55:46.775Z,1018.01
2016-05-15T11:56:46.810Z,1018.02
2016-05-15T11:57:46.829Z,1018.03
2016-05-15T11:58:46.862Z,1018.01
2016-05-15T11:59:46.879Z,1017.93
2016-05-15T12:00:46.898Z,1017.97
2016-05-15T12:01:46.932Z,1018.01
2016-05-15T12:02:46.951Z,1017.98
2016-05-15T12:03:46.985Z,1017.96
2016-05-15T12:04:47.003Z,1017.97
2016-05-15T12:05:47.037Z,1018.04
2016-05-15T12:06:47.055Z,1018
2016-05-15T12:07:47.073Z,1018.01
2016-05-15T12:08:47.108Z,1018.01